Terminal Aerodrome Forecast
Issued by NWS Sterling, VA

Current Version | Previous Version | Text Only | Print | Product List | Glossary Off
Versions: 1 2 3 4 5 6 7 8 9 10 11 12 13 14 15 16 17 18 19 20 21 22 23 24 25 26

000
FTUS41 KLWX 022045 AAA
TAFDCA
TAF AMD
KDCA 022045Z 0221/0318 30006KT P6SM VCTS BKN060CB
     FM030200 29004KT P6SM BKN060
     FM030400 VRB03KT P6SM SCT060=

USA.gov is the U.S. government's official web portal to all federal, state and local government web resources and services.